Time;durP1;ratioP1;P1;durP2;ratioP2;P2;SDS_P1;SDS_P2;PMS_P1;PMS_P2;Temp;Humidity;BMP_temperature;BMP_pressure;BME280_temperature;BME280_humidity;BME280_pressure;Samples;Min_cycle;Max_cycle;Signal;HPM_P1;HPM_P2
2021/04/29 00:02:07;;;;;;;7.60;6.50;;;13.70;1.00;;;;;;5082968;28;20205;-59
2021/04/29 00:04:32;;;;;;;7.10;6.40;;;13.80;1.00;;;;;;5068623;28;20195;-58
2021/04/29 00:06:58;;;;;;;8.93;7.10;;;13.80;1.00;;;;;;5072507;28;20910;-59
2021/04/29 00:09:24;;;;;;;7.13;6.17;;;13.80;1.00;;;;;;5070700;28;20179;-59
2021/04/29 00:11:49;;;;;;;6.63;5.93;;;13.80;1.00;;;;;;5084195;28;20236;-59
2021/04/29 00:14:15;;;;;;;6.33;5.73;;;13.80;1.00;;;;;;5077944;28;20186;-59
2021/04/29 00:16:42;;;;;;;7.50;6.70;;;13.80;1.00;;;;;;5073440;28;20187;-58
2021/04/29 00:19:09;;;;;;;8.27;6.30;;;13.80;1.00;;;;;;5080944;28;20434;-59
2021/04/29 00:21:35;;;;;;;7.30;5.83;;;13.80;1.00;;;;;;5087439;28;20871;-58
2021/04/29 00:24:01;;;;;;;9.47;6.53;;;13.80;1.00;;;;;;5083916;28;20494;-59
2021/04/29 00:26:27;;;;;;;8.47;6.30;;;13.80;1.00;;;;;;5080195;28;20441;-58
2021/04/29 00:28:53;;;;;;;6.50;5.67;;;13.70;1.00;;;;;;5072400;28;20474;-59
2021/04/29 00:31:19;;;;;;;7.67;6.17;;;13.80;1.00;;;;;;5085866;28;20178;-59
2021/04/29 00:33:45;;;;;;;6.50;5.90;;;13.80;1.00;;;;;;5076579;28;20183;-58
2021/04/29 00:36:10;;;;;;;6.10;5.50;;;13.80;1.00;;;;;;5075658;28;20448;-59
2021/04/29 00:38:36;;;;;;;7.77;6.30;;;13.80;1.00;;;;;;5072561;28;20202;-59
2021/04/29 00:41:03;;;;;;;7.33;6.63;;;13.90;1.00;;;;;;5084486;28;20202;-59
2021/04/29 00:43:28;;;;;;;7.17;6.47;;;13.90;1.00;;;;;;5071997;28;20641;-58
2021/04/29 00:45:54;;;;;;;7.50;6.80;;;13.90;1.00;;;;;;5078101;28;20440;-58
2021/04/29 00:48:20;;;;;;;8.43;5.90;;;13.90;1.00;;;;;;5080217;28;20175;-58
2021/04/29 00:50:45;;;;;;;6.63;5.80;;;13.90;1.00;;;;;;5080750;28;20278;-58
2021/04/29 00:53:11;;;;;;;6.33;5.73;;;14.00;1.00;;;;;;5068344;28;20544;-59
2021/04/29 00:55:37;;;;;;;6.17;5.57;;;13.90;1.00;;;;;;5088973;28;20628;-59
2021/04/29 00:58:03;;;;;;;9.07;6.43;;;13.90;1.00;;;;;;5075583;28;20179;-59
2021/04/29 01:00:30;;;;;;;7.10;6.37;;;13.90;1.00;;;;;;5078982;28;20222;-59
2021/04/29 01:03:03;;;;;;;5.63;5.13;;;13.90;1.00;;;;;;5076438;28;20452;-59
2021/04/29 01:05:33;;;;;;;8.67;6.53;;;13.90;1.00;;;;;;5069519;28;20867;-59
2021/04/29 01:08:13;;;;;;;12.77;5.60;;;14.00;1.00;;;;;;5076684;28;20912;-59
2021/04/29 01:10:44;;;;;;;9.03;6.97;;;13.90;1.00;;;;;;5080368;28;20787;-59
2021/04/29 01:13:13;;;;;;;7.10;5.40;;;13.90;1.00;;;;;;5080604;28;20728;-59
2021/04/29 01:15:42;;;;;;;6.33;5.53;;;14.00;1.00;;;;;;5075342;28;20471;-59
2021/04/29 01:18:09;;;;;;;6.50;5.60;;;13.90;1.00;;;;;;5074957;28;20501;-59
2021/04/29 01:20:59;;;;;;;6.30;5.33;;;13.90;1.00;;;;;;5077915;28;20469;-60
2021/04/29 01:23:57;;;;;;;10.20;5.73;;;13.90;1.00;;;;;;5081766;28;20436;-59
2021/04/29 01:26:32;;;;;;;9.33;5.70;;;13.90;1.00;;;;;;5077087;28;20449;-58
2021/04/29 01:29:00;;;;;;;11.10;5.60;;;13.90;1.00;;;;;;5076101;28;20487;-59
2021/04/29 01:31:31;;;;;;;6.50;5.27;;;13.90;1.00;;;;;;5081620;28;20521;-59
2021/04/29 01:33:58;;;;;;;6.33;5.73;;;13.90;1.00;;;;;;5079435;28;20456;-59
2021/04/29 01:36:26;;;;;;;6.53;5.93;;;14.00;1.00;;;;;;5072335;28;20825;-59
2021/04/29 01:38:52;;;;;;;6.47;5.80;;;14.00;1.00;;;;;;5080470;28;20457;-59
2021/04/29 01:41:18;;;;;;;7.30;5.40;;;14.00;1.00;;;;;;5077912;28;20494;-59
2021/04/29 01:43:44;;;;;;;6.27;5.17;;;13.90;1.00;;;;;;5086645;28;20436;-58
2021/04/29 01:46:10;;;;;;;7.40;5.70;;;14.00;1.00;;;;;;5074600;28;20445;-58
2021/04/29 01:48:36;;;;;;;6.67;5.80;;;14.00;1.00;;;;;;5074296;28;20523;-60
2021/04/29 01:51:03;;;;;;;8.20;5.47;;;14.00;1.00;;;;;;5076141;28;20191;-58
2021/04/29 01:53:29;;;;;;;6.03;5.30;;;14.00;1.00;;;;;;5074951;28;20433;-60
2021/04/29 01:55:55;;;;;;;5.43;4.67;;;14.00;1.00;;;;;;5084294;28;20449;-60
2021/04/29 01:58:22;;;;;;;9.97;5.90;;;13.90;1.00;;;;;;5088456;28;20186;-59
2021/04/29 02:00:49;;;;;;;7.40;5.60;;;14.00;1.00;;;;;;5071848;28;20464;-59
2021/04/29 02:03:14;;;;;;;7.43;5.00;;;14.00;1.00;;;;;;5076261;28;20449;-58
2021/04/29 02:05:40;;;;;;;8.50;5.57;;;13.90;1.00;;;;;;5072149;28;20430;-59
2021/04/29 02:08:05;;;;;;;5.00;4.57;;;13.90;1.00;;;;;;5070035;28;20179;-58
2021/04/29 02:10:31;;;;;;;6.10;5.50;;;14.00;1.00;;;;;;5080916;28;20195;-59
2021/04/29 02:12:57;;;;;;;7.10;5.53;;;14.00;1.00;;;;;;5078871;28;20186;-58
2021/04/29 02:15:32;;;;;;;6.20;4.80;;;14.00;1.00;;;;;;5081965;28;20441;-59
2021/04/29 02:18:13;;;;;;;5.87;5.03;;;14.00;1.00;;;;;;5088824;28;20463;-59
2021/04/29 02:20:41;;;;;;;6.20;5.60;;;14.00;1.00;;;;;;5076358;28;20480;-59
2021/04/29 02:23:10;;;;;;;7.60;5.83;;;14.00;1.00;;;;;;5074426;28;20441;-59
2021/04/29 02:25:38;;;;;;;6.10;5.20;;;13.90;1.00;;;;;;5079194;28;20445;-59
2021/04/29 02:28:03;;;;;;;6.70;5.30;;;13.90;1.00;;;;;;5080192;28;20922;-58
2021/04/29 02:30:29;;;;;;;9.97;6.50;;;14.00;1.00;;;;;;5078265;28;20476;-60
2021/04/29 02:32:55;;;;;;;6.00;5.50;;;14.00;1.00;;;;;;5079109;28;20187;-59
2021/04/29 02:35:21;;;;;;;5.30;4.77;;;14.00;1.00;;;;;;5079153;28;20444;-59
2021/04/29 02:37:49;;;;;;;7.67;6.20;;;13.90;1.00;;;;;;5071494;28;20194;-59
2021/04/29 02:40:16;;;;;;;10.00;5.70;;;13.90;1.00;;;;;;5072104;28;20468;-59
2021/04/29 02:42:42;;;;;;;6.80;6.20;;;14.00;1.00;;;;;;5074196;28;20456;-59
2021/04/29 02:45:10;;;;;;;7.47;6.10;;;13.90;1.00;;;;;;5072220;28;20446;-59
2021/04/29 02:47:38;;;;;;;7.00;5.90;;;13.90;1.00;;;;;;5068528;28;20484;-59
2021/04/29 02:50:05;;;;;;;6.57;5.90;;;13.80;1.00;;;;;;5077407;28;20923;-58
2021/04/29 02:52:31;;;;;;;10.33;7.43;;;13.90;1.00;;;;;;5072524;28;20945;-59
2021/04/29 02:54:57;;;;;;;6.43;5.90;;;13.80;1.00;;;;;;5088379;28;20448;-59
2021/04/29 02:57:23;;;;;;;5.93;5.33;;;14.00;1.00;;;;;;5079710;28;20457;-58
2021/04/29 02:59:49;;;;;;;7.03;6.23;;;13.90;1.00;;;;;;5066047;28;20519;-58
2021/04/29 03:02:16;;;;;;;6.83;6.13;;;13.90;1.00;;;;;;5069034;28;20194;-59
2021/04/29 03:04:42;;;;;;;6.33;5.67;;;13.80;1.00;;;;;;5068835;28;20655;-59
2021/04/29 03:07:07;;;;;;;6.37;5.63;;;13.80;1.00;;;;;;5078266;28;20441;-59
2021/04/29 03:09:33;;;;;;;6.83;6.20;;;13.80;1.00;;;;;;5080426;28;20535;-59
2021/04/29 03:11:58;;;;;;;6.60;5.60;;;13.80;1.00;;;;;;5071089;28;20689;-59
2021/04/29 03:14:24;;;;;;;8.10;5.83;;;13.80;1.00;;;;;;5083009;28;20565;-58
2021/04/29 03:16:49;;;;;;;6.37;5.77;;;13.80;1.00;;;;;;5077675;28;20528;-58
2021/04/29 03:19:15;;;;;;;7.70;6.30;;;13.80;1.00;;;;;;5081502;28;20632;-58
2021/04/29 03:21:40;;;;;;;6.57;5.60;;;13.70;1.00;;;;;;5075791;28;20202;-58
2021/04/29 03:24:07;;;;;;;12.73;6.60;;;13.70;1.00;;;;;;5084528;28;20712;-59
2021/04/29 03:26:34;;;;;;;7.30;5.97;;;13.80;1.00;;;;;;5074989;28;20267;-58
2021/04/29 03:28:59;;;;;;;10.10;6.10;;;13.70;1.00;;;;;;5080674;28;20940;-59
2021/04/29 03:31:25;;;;;;;6.40;5.80;;;13.70;1.00;;;;;;5076424;28;20527;-58
2021/04/29 03:33:51;;;;;;;8.17;5.90;;;13.80;1.00;;;;;;5077453;28;20273;-58
2021/04/29 03:36:17;;;;;;;8.40;6.13;;;13.70;1.00;;;;;;5067143;28;20192;-58
2021/04/29 03:38:43;;;;;;;6.57;5.90;;;13.80;1.00;;;;;;5076617;28;20444;-59
2021/04/29 03:41:08;;;;;;;7.87;6.43;;;13.80;1.00;;;;;;5069481;28;20261;-59
2021/04/29 03:43:34;;;;;;;7.63;6.50;;;13.70;1.00;;;;;;5085581;28;20428;-58
2021/04/29 03:45:59;;;;;;;7.60;6.40;;;13.80;1.00;;;;;;5076858;28;20529;-59
2021/04/29 03:48:25;;;;;;;6.80;6.13;;;13.80;1.00;;;;;;5084498;28;20191;-60
2021/04/29 03:50:50;;;;;;;6.50;5.90;;;13.80;1.00;;;;;;5080904;28;20236;-59
2021/04/29 03:53:16;;;;;;;7.20;5.83;;;13.90;1.00;;;;;;5078360;28;20708;-59
2021/04/29 03:55:41;;;;;;;12.00;6.20;;;13.80;1.00;;;;;;5072487;28;20191;-59
2021/04/29 03:58:07;;;;;;;7.93;7.10;;;13.80;1.00;;;;;;5070459;28;20183;-59
2021/04/29 04:00:33;;;;;;;10.17;6.97;;;13.80;1.00;;;;;;5080600;28;20199;-59
2021/04/29 04:02:58;;;;;;;9.30;7.37;;;13.80;1.00;;;;;;5084452;28;20190;-60
2021/04/29 04:05:24;;;;;;;7.60;6.90;;;13.80;1.00;;;;;;5083865;28;20215;-59
2021/04/29 04:07:49;;;;;;;8.30;6.50;;;13.90;1.00;;;;;;5076294;28;20247;-58
2021/04/29 04:10:15;;;;;;;7.90;7.10;;;13.90;1.00;;;;;;5084149;28;20200;-59
2021/04/29 04:12:40;;;;;;;8.87;7.23;;;13.90;1.00;;;;;;5072050;28;20184;-59
2021/04/29 04:15:07;;;;;;;10.53;7.30;;;13.90;1.00;;;;;;5086904;28;20184;-60
2021/04/29 04:17:32;;;;;;;8.67;7.40;;;13.90;1.00;;;;;;5070290;28;20642;-58
2021/04/29 04:19:58;;;;;;;8.77;6.73;;;13.90;1.00;;;;;;5074375;28;20499;-58
2021/04/29 04:22:23;;;;;;;12.27;6.83;;;13.90;1.00;;;;;;5074469;28;20187;-59
2021/04/29 04:24:49;;;;;;;9.70;7.23;;;13.90;1.00;;;;;;5086645;28;20182;-58
2021/04/29 04:27:15;;;;;;;7.90;7.00;;;14.00;1.00;;;;;;5083646;28;20184;-59
2021/04/29 04:29:40;;;;;;;8.00;7.20;;;14.00;1.00;;;;;;5074264;28;20728;-58
2021/04/29 04:32:06;;;;;;;9.60;7.33;;;14.00;1.00;;;;;;5074386;28;20203;-58
2021/04/29 04:34:32;;;;;;;7.70;6.90;;;13.90;1.00;;;;;;5080560;28;20612;-59
2021/04/29 04:36:57;;;;;;;9.43;7.73;;;14.00;1.00;;;;;;5080721;28;20183;-59
2021/04/29 04:39:23;;;;;;;7.60;6.97;;;13.90;1.00;;;;;;5077018;28;20441;-59
2021/04/29 04:41:49;;;;;;;8.23;7.37;;;13.90;1.00;;;;;;5078357;28;20226;-59
2021/04/29 04:44:14;;;;;;;8.03;7.23;;;13.80;1.00;;;;;;5074236;28;20195;-58
2021/04/29 04:46:40;;;;;;;10.77;8.33;;;13.70;1.00;;;;;;5074891;28;20510;-60
2021/04/29 04:49:06;;;;;;;11.77;7.37;;;13.70;1.00;;;;;;5080501;28;20180;-59
2021/04/29 04:51:31;;;;;;;8.60;7.37;;;13.80;1.00;;;;;;5079290;28;20219;-60
2021/04/29 04:53:57;;;;;;;9.63;8.53;;;14.00;1.00;;;;;;5071038;28;20541;-60
2021/04/29 04:56:22;;;;;;;8.97;7.77;;;13.90;1.00;;;;;;5079208;28;20268;-59
2021/04/29 04:58:48;;;;;;;9.50;8.50;;;13.80;1.00;;;;;;5070559;28;20226;-59
2021/04/29 05:01:13;;;;;;;11.20;8.00;;;13.80;1.00;;;;;;5070487;28;20741;-59
2021/04/29 05:03:39;;;;;;;10.50;7.87;;;13.80;1.00;;;;;;5073596;28;20180;-59
2021/04/29 05:06:05;;;;;;;9.83;8.83;;;13.80;1.00;;;;;;5089810;28;20171;-59
2021/04/29 05:08:30;;;;;;;12.87;9.37;;;13.80;1.00;;;;;;5081110;28;20193;-59
2021/04/29 05:10:56;;;;;;;9.47;8.13;;;13.70;1.00;;;;;;5078803;28;20198;-59
2021/04/29 05:13:23;;;;;;;9.10;8.07;;;13.60;1.00;;;;;;5073817;28;20178;-59
2021/04/29 05:15:48;;;;;;;12.67;9.50;;;13.60;1.00;;;;;;5078059;28;20245;-60
2021/04/29 05:18:14;;;;;;;11.90;8.10;;;13.70;1.00;;;;;;5071671;28;20449;-59
2021/04/29 05:20:39;;;;;;;9.53;8.57;;;13.60;1.00;;;;;;5087800;28;20711;-59
2021/04/29 05:23:05;;;;;;;10.30;9.30;;;13.50;1.00;;;;;;5082834;28;20178;-58
2021/04/29 05:25:31;;;;;;;11.07;9.90;;;13.40;1.00;;;;;;5079526;28;20310;-59
2021/04/29 05:28:04;;;;;;;10.57;9.47;;;13.40;1.00;;;;;;5076266;28;20195;-59
2021/04/29 05:30:30;;;;;;;12.97;11.10;;;13.50;1.00;;;;;;5087440;28;20226;-59
2021/04/29 05:32:55;;;;;;;13.00;9.87;;;13.50;1.00;;;;;;5080710;28;20966;-58
2021/04/29 05:35:21;;;;;;;10.67;9.57;;;13.60;1.00;;;;;;5080038;28;20270;-60
2021/04/29 05:37:47;;;;;;;10.77;9.60;;;13.60;1.00;;;;;;5083037;28;20188;-59
2021/04/29 05:40:13;;;;;;;10.13;9.10;;;13.70;1.00;;;;;;5083255;28;20179;-60
2021/04/29 05:42:40;;;;;;;12.23;9.90;;;13.70;1.00;;;;;;5071083;28;20650;-59
2021/04/29 05:45:06;;;;;;;10.90;9.80;;;13.80;1.00;;;;;;5070504;28;20437;-59
2021/04/29 05:47:32;;;;;;;11.23;10.13;;;13.80;1.00;;;;;;5081033;28;20441;-59
2021/04/29 05:49:58;;;;;;;11.47;10.27;;;13.70;1.00;;;;;;5091392;28;20948;-60
2021/04/29 05:52:23;;;;;;;13.00;10.07;;;13.60;1.00;;;;;;5069782;28;20701;-59
2021/04/29 05:54:49;;;;;;;11.27;9.73;;;13.60;1.00;;;;;;5069397;28;20179;-59
2021/04/29 05:57:14;;;;;;;12.33;11.03;;;13.60;1.00;;;;;;5069678;28;20585;-60
2021/04/29 05:59:40;;;;;;;11.20;10.10;;;13.50;1.00;;;;;;5070256;28;20266;-58
2021/04/29 06:02:06;;;;;;;12.73;10.40;;;13.50;1.00;;;;;;5071561;28;20253;-59
2021/04/29 06:04:32;;;;;;;13.93;10.77;;;13.50;1.00;;;;;;5070511;28;20183;-59
2021/04/29 06:06:57;;;;;;;12.87;11.60;;;13.40;1.00;;;;;;5070237;28;20433;-59
2021/04/29 06:09:23;;;;;;;12.33;11.00;;;13.40;1.00;;;;;;5070178;28;20183;-59
2021/04/29 06:11:48;;;;;;;13.10;11.70;;;13.40;1.00;;;;;;5065562;28;20191;-59
2021/04/29 06:14:14;;;;;;;10.77;9.67;;;13.30;1.00;;;;;;5069173;28;20239;-59
2021/04/29 06:16:40;;;;;;;14.93;12.00;;;13.30;1.00;;;;;;5074402;28;20237;-58
2021/04/29 06:19:06;;;;;;;12.67;11.33;;;13.20;1.00;;;;;;5069617;28;20187;-59
2021/04/29 06:21:32;;;;;;;13.80;12.17;;;13.30;1.00;;;;;;5076282;28;20876;-59
2021/04/29 06:23:58;;;;;;;14.30;11.47;;;13.30;1.00;;;;;;5072405;28;20468;-59
2021/04/29 06:26:24;;;;;;;14.10;12.03;;;13.20;1.00;;;;;;5083355;28;20707;-59
2021/04/29 06:28:49;;;;;;;16.50;11.23;;;13.20;1.00;;;;;;5070025;28;20231;-58
2021/04/29 06:31:15;;;;;;;14.50;12.90;;;13.10;1.00;;;;;;5071196;28;20262;-58
2021/04/29 06:33:40;;;;;;;15.10;13.13;;;13.20;1.00;;;;;;5069527;28;20543;-59
2021/04/29 06:36:06;;;;;;;13.63;12.10;;;13.10;1.00;;;;;;5080238;28;20751;-59
2021/04/29 06:38:34;;;;;;;13.60;12.30;;;13.20;1.00;;;;;;5084913;28;20191;-59
2021/04/29 06:41:00;;;;;;;15.00;12.90;;;13.10;1.00;;;;;;5085765;28;20204;-60
2021/04/29 06:43:26;;;;;;;15.97;13.03;;;13.30;1.00;;;;;;5067855;28;20448;-59
2021/04/29 06:45:52;;;;;;;13.93;12.47;;;13.30;1.00;;;;;;5069772;28;20907;-59
2021/04/29 06:48:17;;;;;;;15.40;12.77;;;13.30;1.00;;;;;;5070348;28;20652;-59
2021/04/29 06:50:43;;;;;;;15.70;13.63;;;13.30;1.00;;;;;;5069620;28;20702;-60
2021/04/29 06:53:08;;;;;;;13.83;12.37;;;13.40;1.00;;;;;;5068253;28;20180;-59
2021/04/29 06:55:34;;;;;;;15.30;12.40;;;13.40;1.00;;;;;;5069193;28;20179;-59
2021/04/29 06:58:00;;;;;;;20.40;13.53;;;;;;;;;;5071522;28;20284;-59
2021/04/29 07:00:25;;;;;;;14.77;13.20;;;13.40;1.00;;;;;;5075819;28;20248;-59
2021/04/29 07:02:52;;;;;;;15.40;12.70;;;13.50;1.00;;;;;;5057541;28;20458;-59
2021/04/29 07:05:17;;;;;;;14.80;12.30;;;13.60;1.00;;;;;;5078511;28;20636;-59
2021/04/29 07:07:43;;;;;;;15.33;13.33;;;13.70;1.00;;;;;;5084939;28;20446;-58
2021/04/29 07:10:09;;;;;;;15.30;13.47;;;14.00;1.00;;;;;;5074098;28;20241;-58
2021/04/29 07:12:35;;;;;;;15.57;13.27;;;14.10;1.00;;;;;;5077997;28;20188;-58
2021/04/29 07:15:00;;;;;;;15.63;12.60;;;14.20;1.00;;;;;;5081623;28;20787;-58
2021/04/29 07:17:26;;;;;;;19.20;13.80;;;14.20;1.00;;;;;;5083193;28;20229;-59
2021/04/29 07:19:51;;;;;;;16.17;12.90;;;14.20;1.00;;;;;;5081723;28;20272;-59
2021/04/29 07:22:17;;;;;;;18.10;13.87;;;14.30;1.00;;;;;;5081168;28;20272;-59
2021/04/29 07:24:43;;;;;;;14.67;13.17;;;17.80;1.00;;;;;;5083718;28;20263;-59
2021/04/29 07:27:10;;;;;;;15.60;13.30;;;14.10;1.00;;;;;;5083166;28;20197;-60
2021/04/29 07:29:36;;;;;;;14.90;13.20;;;14.50;1.00;;;;;;5076960;28;20488;-58
2021/04/29 07:32:02;;;;;;;15.40;13.37;;;14.50;1.00;;;;;;5080541;28;20436;-59
2021/04/29 07:34:28;;;;;;;16.07;14.10;;;14.40;1.00;;;;;;5083808;28;20444;-59
2021/04/29 07:36:54;;;;;;;18.60;14.80;;;14.50;1.00;;;;;;5081799;28;20427;-59
2021/04/29 07:39:20;;;;;;;23.90;15.47;;;;;;;;;;5086883;28;20553;-59
2021/04/29 07:41:46;;;;;;;17.30;13.97;;;;;;;;;;5085502;28;20207;-59
2021/04/29 07:44:14;;;;;;;15.83;13.37;;;14.70;1.00;;;;;;5080476;28;20454;-59
2021/04/29 07:46:39;;;;;;;16.20;14.00;;;14.70;1.00;;;;;;5072672;28;20531;-59
2021/04/29 07:49:05;;;;;;;17.20;15.13;;;14.80;1.00;;;;;;5073499;28;20982;-59
2021/04/29 07:51:30;;;;;;;16.03;13.00;;;14.80;1.00;;;;;;5076077;28;20268;-59
2021/04/29 07:53:56;;;;;;;15.40;13.83;;;14.80;1.00;;;;;;5078549;28;20202;-60
2021/04/29 07:56:21;;;;;;;15.73;13.97;;;14.80;1.00;;;;;;5077095;28;20259;-59
2021/04/29 07:58:47;;;;;;;15.47;13.57;;;14.90;1.00;;;;;;5084145;28;20634;-59
2021/04/29 08:01:12;;;;;;;14.60;13.07;;;15.00;1.00;;;;;;5077852;28;20788;-53
2021/04/29 08:03:38;;;;;;;18.00;14.60;;;15.00;1.00;;;;;;5073933;28;20715;-60
2021/04/29 08:06:04;;;;;;;16.07;14.50;;;15.00;1.00;;;;;;5087517;28;20179;-60
2021/04/29 08:08:30;;;;;;;14.93;13.13;;;15.10;1.00;;;;;;5076569;28;20180;-60
2021/04/29 08:10:55;;;;;;;15.53;13.90;;;15.20;1.00;;;;;;5081247;28;20191;-59
2021/04/29 08:13:21;;;;;;;16.90;13.33;;;;;;;;;;5079060;28;20191;-60
2021/04/29 08:15:47;;;;;;;19.80;14.23;;;15.10;1.00;;;;;;5076782;28;20191;-59
2021/04/29 08:18:12;;;;;;;18.33;13.53;;;15.20;1.00;;;;;;5080545;28;20966;-60
2021/04/29 08:20:39;;;;;;;19.83;14.90;;;15.20;1.00;;;;;;5085989;28;20210;-59
2021/04/29 08:23:06;;;;;;;15.33;13.70;;;15.30;1.00;;;;;;5080004;28;20176;-60
2021/04/29 08:25:32;;;;;;;19.70;15.80;;;15.30;1.00;;;;;;5088680;28;20437;-59
2021/04/29 08:27:58;;;;;;;17.43;15.50;;;15.60;1.00;;;;;;5075928;28;20433;-59
2021/04/29 08:30:27;;;;;;;16.53;14.07;;;15.60;1.00;;;;;;5073776;28;20808;-60
2021/04/29 08:32:54;;;;;;;15.27;13.23;;;15.80;1.00;;;;;;5093775;28;20221;-60
2021/04/29 08:35:20;;;;;;;19.30;13.90;;;15.90;1.00;;;;;;5090488;28;20493;-59
2021/04/29 08:37:46;;;;;;;15.93;14.23;;;15.90;1.00;;;;;;5087045;28;20488;-59
2021/04/29 08:40:12;;;;;;;17.63;13.50;;;16.00;1.00;;;;;;5085553;28;20442;-59
2021/04/29 08:42:37;;;;;;;15.73;13.47;;;16.20;1.00;;;;;;5075365;28;20786;-60
2021/04/29 08:45:05;;;;;;;14.80;13.30;;;16.50;1.00;;;;;;5094034;28;20260;-60
2021/04/29 08:47:30;;;;;;;15.00;13.50;;;16.60;1.00;;;;;;5094492;28;20213;-60
2021/04/29 08:49:57;;;;;;;15.90;14.20;;;16.70;1.00;;;;;;5083052;28;20870;-61
2021/04/29 08:52:22;;;;;;;16.87;14.90;;;16.80;1.00;;;;;;5077762;28;20218;-60
2021/04/29 08:54:49;;;;;;;17.60;13.87;;;;;;;;;;5077830;28;20469;-60
2021/04/29 08:57:15;;;;;;;16.93;15.03;;;17.30;1.00;;;;;;5075030;28;20260;-59
2021/04/29 08:59:41;;;;;;;18.77;15.90;;;17.70;1.00;;;;;;5074065;28;20436;-59
2021/04/29 09:02:07;;;;;;;16.13;14.53;;;17.80;1.00;;;;;;5073891;28;20943;-59
2021/04/29 09:04:41;;;;;;;16.60;14.90;;;18.00;1.00;;;;;;5073976;28;20922;-59
2021/04/29 09:07:17;;;;;;;17.07;14.00;;;18.10;1.00;;;;;;5085330;28;20926;-59
2021/04/29 09:09:44;;;;;;;17.30;14.07;;;18.20;1.00;;;;;;5077963;28;20433;-60
2021/04/29 09:12:11;;;;;;;17.30;14.73;;;18.50;1.00;;;;;;5079638;28;20455;-60
2021/04/29 09:14:39;;;;;;;15.43;13.93;;;19.20;1.00;;;;;;5080630;28;20444;-60
2021/04/29 09:17:05;;;;;;;15.93;14.33;;;19.70;1.00;;;;;;5080632;28;20528;-61
2021/04/29 09:19:35;;;;;;;15.37;13.87;;;20.00;1.00;;;;;;5074425;28;20441;-61
2021/04/29 09:22:00;;;;;;;15.43;13.93;;;20.20;1.00;;;;;;5078028;28;20467;-61
2021/04/29 09:24:37;;;;;;;14.40;12.90;;;20.20;1.00;;;;;;5090746;28;20436;-60
2021/04/29 09:27:14;;;;;;;16.13;12.20;;;20.20;1.00;;;;;;5079286;28;20236;-60
2021/04/29 09:29:53;;;;;;;14.40;11.33;;;19.60;1.00;;;;;;5085537;28;20496;-61
2021/04/29 09:32:27;;;;;;;8.20;7.50;;;19.40;1.00;;;;;;5081002;28;20458;-60
2021/04/29 09:34:53;;;;;;;7.53;6.83;;;19.00;1.00;;;;;;5074995;28;20450;-60
2021/04/29 09:37:33;;;;;;;5.80;5.30;;;18.80;1.00;;;;;;5079423;28;20432;-61
2021/04/29 09:40:01;;;;;;;5.37;4.40;;;19.00;1.00;;;;;;5066119;28;20191;-59
2021/04/29 09:42:36;;;;;;;5.43;4.60;;;19.00;1.00;;;;;;5080260;28;20492;-61
2021/04/29 09:45:04;;;;;;;4.70;4.30;;;17.90;1.00;;;;;;5090193;28;20437;-61
2021/04/29 09:47:30;;;;;;;4.70;4.30;;;17.90;1.00;;;;;;5074989;28;20449;-60
2021/04/29 09:49:56;;;;;;;5.43;4.90;;;17.70;1.00;;;;;;5070083;28;20530;-60
2021/04/29 09:52:24;;;;;;;5.73;5.23;;;17.60;1.00;;;;;;5080326;28;20449;-60
2021/04/29 09:54:52;;;;;;;5.57;4.53;;;17.30;1.00;;;;;;5084728;28;20527;-61
2021/04/29 09:57:26;;;;;;;5.20;4.77;;;17.40;1.00;;;;;;5083225;28;20484;-61
2021/04/29 09:59:59;;;;;;;6.60;5.10;;;17.60;1.00;;;;;;5070467;28;20453;-60
2021/04/29 10:02:28;;;;;;;5.30;4.80;;;17.90;1.00;;;;;;5070968;28;20548;-62
2021/04/29 10:04:54;;;;;;;10.30;5.67;;;18.00;1.00;;;;;;5071140;28;20441;-62
2021/04/29 10:07:21;;;;;;;6.93;5.73;;;18.20;1.00;;;;;;5069221;28;20450;-60
2021/04/29 10:09:49;;;;;;;6.83;6.23;;;18.40;1.00;;;;;;5074309;28;20465;-59
2021/04/29 10:12:16;;;;;;;6.90;6.30;;;18.40;1.00;;;;;;5070732;28;20458;-61
2021/04/29 10:14:50;;;;;;;6.40;5.80;;;18.60;1.00;;;;;;5083192;28;21019;-60
2021/04/29 10:17:17;;;;;;;6.70;6.00;;;18.50;1.00;;;;;;5079992;28;20442;-60
2021/04/29 10:19:49;;;;;;;6.50;5.90;;;18.30;1.00;;;;;;5066997;28;20445;-61
2021/04/29 10:22:16;;;;;;;5.80;5.20;;;18.30;1.00;;;;;;5073729;28;20531;-60
2021/04/29 10:24:43;;;;;;;6.90;6.30;;;18.30;1.00;;;;;;5065597;28;20895;-60
2021/04/29 10:27:12;;;;;;;6.43;5.67;;;18.00;1.00;;;;;;5079086;28;20517;-59
2021/04/29 10:29:38;;;;;;;6.70;6.10;;;18.00;1.00;;;;;;5069717;28;20465;-61
2021/04/29 10:32:09;;;;;;;5.90;5.30;;;18.20;1.00;;;;;;5064942;28;20464;-61
2021/04/29 10:34:48;;;;;;;5.30;4.80;;;18.40;1.00;;;;;;5069813;28;21133;-61
2021/04/29 10:37:17;;;;;;;3.60;3.30;;;18.70;1.00;;;;;;5083636;28;20930;-62
2021/04/29 10:40:11;;;;;;;4.30;3.90;;;18.70;1.00;;;;;;5081804;28;20473;-63
2021/04/29 10:42:44;;;;;;;3.97;3.67;;;18.90;1.00;;;;;;5069711;28;20443;-61
2021/04/29 10:45:12;;;;;;;3.70;3.40;;;18.80;1.00;;;;;;5069962;28;20506;-62
2021/04/29 10:47:38;;;;;;;3.93;3.53;;;19.00;1.00;;;;;;5070487;28;20434;-61
2021/04/29 10:50:18;;;;;;;4.10;3.70;;;19.00;1.00;;;;;;5069067;28;20436;-60
2021/04/29 10:52:59;;;;;;;4.47;3.83;;;19.10;1.00;;;;;;5069349;28;20821;-61
2021/04/29 10:55:26;;;;;;;3.33;3.03;;;18.80;1.00;;;;;;5069225;28;20807;-60
2021/04/29 10:57:52;;;;;;;5.03;3.50;;;18.70;1.00;;;;;;5070022;28;20433;-61
2021/04/29 11:00:19;;;;;;;3.70;3.40;;;19.00;1.00;;;;;;5068226;28;20491;-60
2021/04/29 11:03:03;;;;;;;5.10;3.90;;;19.20;1.00;;;;;;5068438;28;20444;-60
2021/04/29 11:05:30;;;;;;;4.03;3.73;;;19.20;1.00;;;;;;5070183;28;20781;-61
2021/04/29 11:08:04;;;;;;;6.20;4.33;;;19.20;1.00;;;;;;5078545;28;20441;-60
2021/04/29 11:10:33;;;;;;;4.10;3.70;;;19.20;1.00;;;;;;5070587;28;20522;-61
2021/04/29 11:13:00;;;;;;;4.90;4.47;;;19.50;1.00;;;;;;5070328;28;20768;-60
2021/04/29 11:15:37;;;;;;;5.40;3.90;;;19.90;1.00;;;;;;5068433;28;20965;-62
2021/04/29 11:18:15;;;;;;;5.20;4.70;;;19.60;1.00;;;;;;5069632;28;20433;-60
2021/04/29 11:20:53;;;;;;;4.23;3.83;;;19.70;1.00;;;;;;5066469;28;20784;-61
2021/04/29 11:23:25;;;;;;;4.47;3.73;;;19.70;1.00;;;;;;5069278;28;20446;-56
2021/04/29 11:25:51;;;;;;;7.20;4.47;;;19.60;1.00;;;;;;5067533;28;20446;-56
2021/04/29 11:28:17;;;;;;;4.53;4.13;;;19.60;1.00;;;;;;5070006;28;20446;-55
2021/04/29 11:30:43;;;;;;;5.80;4.47;;;19.80;1.00;;;;;;5066273;28;20523;-55
2021/04/29 11:33:12;;;;;;;4.33;3.40;;;19.80;1.00;;;;;;5063821;28;20191;-55
2021/04/29 11:35:40;;;;;;;5.47;3.97;;;20.10;1.00;;;;;;5068367;28;20529;-56
2021/04/29 11:38:09;;;;;;;4.20;3.80;;;20.10;1.00;;;;;;5068192;28;20442;-56
2021/04/29 11:40:35;;;;;;;4.67;4.10;;;20.20;1.00;;;;;;5078298;28;20514;-55
2021/04/29 11:43:03;;;;;;;4.60;4.00;;;20.30;1.00;;;;;;5068132;28;20446;-56
2021/04/29 11:45:30;;;;;;;4.77;4.33;;;20.30;1.00;;;;;;5068266;28;20441;-56
2021/04/29 11:47:59;;;;;;;7.47;4.70;;;20.20;1.00;;;;;;5068468;28;20508;-55
2021/04/29 11:50:36;;;;;;;4.33;4.03;;;20.70;1.00;;;;;;5067393;28;20489;-55
2021/04/29 11:53:26;;;;;;;5.10;3.70;;;20.70;1.00;;;;;;5067317;28;20989;-55
2021/04/29 11:56:05;;;;;;;4.03;3.50;;;20.60;1.00;;;;;;5059183;28;20441;-57
2021/04/29 11:58:32;;;;;;;4.23;3.63;;;20.70;1.00;;;;;;5077896;28;20443;-58
2021/04/29 12:00:58;;;;;;;5.90;4.70;;;20.80;1.00;;;;;;5071533;28;20468;-55
2021/04/29 12:03:27;;;;;;;6.07;4.43;;;20.30;1.00;;;;;;5065675;28;20446;-56
2021/04/29 12:05:54;;;;;;;5.70;3.67;;;20.30;1.00;;;;;;5072248;28;20452;-56
2021/04/29 12:08:31;;;;;;;3.80;3.37;;;20.40;1.00;;;;;;5070901;28;20650;-55
2021/04/29 12:10:59;;;;;;;3.80;3.40;;;20.60;1.00;;;;;;5072024;28;20964;-55
2021/04/29 12:13:32;;;;;;;3.97;3.60;;;20.50;1.00;;;;;;5074755;28;20494;-56
2021/04/29 12:16:00;;;;;;;4.47;4.00;;;20.10;1.00;;;;;;5074941;28;20922;-54
2021/04/29 12:18:26;;;;;;;4.23;3.93;;;19.90;1.00;;;;;;5069229;28;21842;-56
2021/04/29 12:20:52;;;;;;;3.90;3.50;;;19.80;1.00;;;;;;5072227;28;20465;-54
2021/04/29 12:23:20;;;;;;;7.30;4.27;;;19.90;1.00;;;;;;5073735;28;20473;-55
2021/04/29 12:26:06;;;;;;;4.87;4.13;;;20.10;1.00;;;;;;5072905;28;20430;-55
2021/04/29 12:28:36;;;;;;;7.10;4.37;;;20.10;1.00;;;;;;5069732;28;20425;-55
2021/04/29 12:31:17;;;;;;;4.33;3.93;;;20.10;1.00;;;;;;5076073;28;20468;-55
2021/04/29 12:33:53;;;;;;;4.87;4.30;;;20.00;1.00;;;;;;5074577;28;20441;-55
2021/04/29 12:36:20;;;;;;;4.83;4.47;;;20.00;1.00;;;;;;5068291;28;20780;-54
2021/04/29 12:38:46;;;;;;;4.57;4.17;;;20.00;1.00;;;;;;5080126;28;20492;-55
2021/04/29 12:41:11;;;;;;;5.70;4.17;;;20.10;1.00;;;;;;5072527;28;20493;-55
2021/04/29 12:43:37;;;;;;;4.00;3.70;;;20.40;1.00;;;;;;5071566;28;20637;-54
2021/04/29 12:46:05;;;;;;;12.33;4.60;;;20.40;1.00;;;;;;5072160;28;20665;-54
2021/04/29 12:48:38;;;;;;;6.67;4.87;;;20.60;1.00;;;;;;5085168;28;20465;-55
2021/04/29 12:51:15;;;;;;;5.50;5.00;;;20.80;1.00;;;;;;5071040;28;20791;-55
2021/04/29 12:53:52;;;;;;;5.50;5.00;;;20.80;1.00;;;;;;5071681;28;20464;-55